Time;durP1;ratioP1;P1;durP2;ratioP2;P2;SDS_P1;SDS_P2;PMS_P1;PMS_P2;Temp;Humidity;BMP_temperature;BMP_pressure;BME280_temperature;BME280_humidity;BME280_pressure;Samples;Min_cycle;Max_cycle;Signal;HPM_P1;HPM_P2
2022/04/17 00:02:00;;;;;;;23.30;11.40;;;;;;;6.98;81.97;100328.63;10160276;29;20059;-74
2022/04/17 00:07:01;;;;;;;38.83;20.35;;;;;;;5.95;82.07;100171.16;10180314;29;20381;-74
2022/04/17 00:12:02;;;;;;;16.15;9.02;;;;;;;7.52;82.14;100437.97;10179287;29;20040;-74
2022/04/17 00:17:03;;;;;;;14.60;8.48;;;;;;;7.71;82.23;100500.50;10179215;29;20500;-75
2022/04/17 00:22:04;;;;;;;11.30;7.20;;;;;;;7.60;82.48;100476.91;10162019;29;20044;-74
2022/04/17 00:27:05;;;;;;;15.88;8.27;;;;;;;7.88;83.10;100532.47;10162150;29;20127;-74
2022/04/17 00:32:07;;;;;;;13.00;7.82;;;;;;;5.89;83.35;100296.47;10178228;29;20492;-74
2022/04/17 00:37:08;;;;;;;11.93;7.28;;;;;;;5.86;84.86;100336.28;10179127;29;20055;-74
2022/04/17 00:42:10;;;;;;;11.40;6.97;;;;;;;5.60;85.32;100299.06;10178896;29;20044;-74
2022/04/17 00:47:15;;;;;;;15.30;8.95;;;;;;;6.54;84.27;100452.38;10178473;29;20060;-74
2022/04/17 00:52:17;;;;;;;25.02;10.00;;;;;;;6.20;83.74;100379.91;10177461;29;20095;-74
2022/04/17 00:57:18;;;;;;;19.48;8.88;;;;;;;6.00;84.65;100371.16;10177960;29;20048;-74
2022/04/17 01:02:19;;;;;;;19.27;8.80;;;;;;;5.95;84.52;100376.81;10176843;29;20036;-75
2022/04/17 01:07:23;;;;;;;21.25;8.15;;;;;;;6.82;84.55;100534.34;10160135;29;20047;-74
2022/04/17 01:12:24;;;;;;;15.77;7.70;;;;;;;6.83;84.21;100552.72;10176881;29;20048;-74
2022/04/17 01:17:26;;;;;;;17.70;9.20;;;;;;;6.22;84.50;100460.53;10176589;29;20056;-74
2022/04/17 01:22:27;;;;;;;26.45;9.25;;;;;;;6.45;84.77;100536.84;10177003;29;20451;-74
2022/04/17 01:27:30;;;;;;;15.27;7.60;;;;;;;6.25;85.70;100522.75;10159944;29;20051;-74
2022/04/17 01:32:30;;;;;;;15.75;6.95;;;;;;;5.51;85.55;100396.56;10176560;29;20099;-75
2022/04/17 01:37:31;;;;;;;9.50;6.45;;;;;;;4.99;85.52;100307.91;10158865;29;20040;-74
2022/04/17 01:42:32;;;;;;;14.65;6.63;;;;;;;3.78;85.43;100112.34;10175565;29;20131;-74
2022/04/17 01:47:33;;;;;;;9.43;6.45;;;;;;;3.99;85.30;100175.38;10158819;29;20431;-75
2022/04/17 01:52:34;;;;;;;14.10;6.57;;;;;;;4.96;85.57;100374.00;10176013;29;20048;-74
2022/04/17 01:57:34;;;;;;;11.93;7.90;;;;;;;5.31;85.91;100449.16;10175561;29;20048;-74
2022/04/17 02:02:35;;;;;;;16.65;8.57;;;;;;;4.32;86.62;100296.09;10174885;29;20040;-73
2022/04/17 02:07:37;;;;;;;21.63;6.53;;;;;;;5.00;87.17;100437.78;10158341;29;20036;-75
2022/04/17 02:12:37;;;;;;;11.07;5.97;;;;;;;5.41;87.28;100510.63;10175520;29;20135;-74
2022/04/17 02:17:38;;;;;;;14.73;5.88;;;;;;;5.71;86.62;100575.72;10155352;29;20146;-74
2022/04/17 02:22:40;;;;;;;10.15;6.15;;;;;;;4.39;86.87;100396.34;10157391;29;20052;-74
2022/04/17 02:27:41;;;;;;;10.50;5.90;;;;;;;3.30;87.53;100254.63;10174642;29;20040;-74
2022/04/17 02:32:41;;;;;;;8.63;6.10;;;;;;;3.09;88.05;100229.13;10174895;29;20496;-74
2022/04/17 02:37:42;;;;;;;9.40;5.50;;;;;;;3.45;88.41;100263.91;10174701;29;20448;-74
2022/04/17 02:42:43;;;;;;;7.93;5.50;;;;;;;4.71;88.10;100454.19;10157471;29;20127;-74
2022/04/17 02:47:44;;;;;;;12.38;5.38;;;;;;;4.23;87.32;100346.00;10173767;29;20070;-75
2022/04/17 02:52:46;;;;;;;7.35;5.03;;;;;;;5.46;86.75;100503.16;10173552;29;20068;-74
2022/04/17 02:57:48;;;;;;;22.20;6.15;;;;;;;6.03;85.78;100514.09;10173432;29;20103;-75
2022/04/17 03:08:13;;;;;;;20.98;7.13;;;;;;;6.02;83.88;100322.56;10173353;29;20127;-75
2022/04/17 03:13:15;;;;;;;15.15;6.03;;;;;;;7.67;83.57;100472.72;10173636;29;20048;-75
2022/04/17 03:18:16;;;;;;;9.23;5.28;;;;;;;9.19;82.02;100597.44;10173267;29;20048;-76
2022/04/17 03:23:17;;;;;;;11.60;5.10;;;;;;;9.18;80.13;100426.97;10152804;29;20052;-74
2022/04/17 03:28:18;;;;;;;7.32;5.07;;;;;;;10.67;78.50;100538.84;10143369;29;20044;-75
2022/04/17 03:33:18;;;;;;;7.70;5.10;;;;;;;11.20;76.27;100489.66;10134401;29;20059;-75
2022/04/17 03:38:19;;;;;;;8.00;5.45;;;;;;;12.17;73.43;100508.19;10142100;29;20496;-75
2022/04/17 03:43:23;;;;;;;10.52;5.28;;;;;;;13.31;70.70;100587.44;10141453;29;20092;-76
2022/04/17 03:48:23;;;;;;;7.10;5.30;;;;;;;13.91;68.65;100610.53;10142159;29;20057;-75
2022/04/17 03:53:24;;;;;;;7.15;5.00;;;;;;;13.77;67.47;100517.06;10141056;29;20059;-75
2022/04/17 03:58:25;;;;;;;9.15;5.32;;;;;;;14.59;65.48;100568.47;10141123;29;20123;-76
2022/04/17 04:03:26;;;;;;;7.78;5.47;;;;;;;14.37;63.69;100466.00;10134125;29;20063;-76
2022/04/17 04:08:27;;;;;;;8.70;4.90;;;;;;;14.78;62.62;100500.19;10155996;29;20512;-75
2022/04/17 04:13:28;;;;;;;8.75;5.22;;;;;;;15.48;61.48;100569.91;10166106;29;20165;-76
2022/04/17 04:18:29;;;;;;;10.68;4.90;;;;;;;16.03;60.43;100594.19;10157368;29;20578;-75
2022/04/17 04:23:34;;;;;;;9.88;5.25;;;;;;;15.69;57.79;100535.06;10177277;29;21103;-76
2022/04/17 04:28:38;;;;;;;9.93;5.32;;;;;;;16.11;59.02;100561.88;10186107;29;20522;-77
2022/04/17 04:33:40;;;;;;;10.20;5.15;;;;;;;16.04;58.70;100561.84;10181856;29;20051;-75
2022/04/17 04:38:41;;;;;;;8.20;4.70;;;;;;;15.46;57.80;100460.31;10187518;29;20044;-74
2022/04/17 04:43:42;;;;;;;12.05;5.18;;;;;;;15.99;56.48;100486.59;10187848;29;20511;-75
2022/04/17 04:54:03;;;;;;;7.25;4.80;;;;;;;15.64;55.83;100454.44;10180601;29;20040;-75
2022/04/17 04:59:04;;;;;;;10.63;4.72;;;;;;;15.32;57.25;100501.44;10161868;29;20071;-74
2022/04/17 05:04:05;;;;;;;11.52;4.90;;;;;;;14.42;58.73;100385.28;10159946;29;20062;-75
2022/04/17 05:09:05;;;;;;;12.38;5.57;;;;;;;15.60;58.44;100532.72;10160328;29;20050;-74
2022/04/17 05:14:08;;;;;;;38.85;15.68;;;;;;;15.39;59.18;100502.31;10176567;29;20040;-75
2022/04/17 05:24:39;;;;;;;9.82;5.45;;;;;;;15.49;58.93;100481.34;10164303;29;20056;-75
2022/04/17 05:29:40;;;;;;;11.82;5.78;;;;;;;15.64;58.31;100451.78;10176264;29;20530;-75
2022/04/17 05:34:41;;;;;;;9.82;6.20;;;;;;;15.03;57.86;100328.56;10159829;29;20393;-75
2022/04/17 05:39:42;;;;;;;10.20;5.40;;;;;;;15.55;57.79;100363.78;10176259;29;20040;-75
2022/04/17 05:44:43;;;;;;;14.43;5.47;;;;;;;14.85;56.45;100259.53;10159260;29;20043;-75
2022/04/17 05:49:44;;;;;;;8.18;5.55;;;;;;;16.92;56.53;100545.03;10159386;29;20052;-73
2022/04/17 05:54:44;;;;;;;14.63;5.78;;;;;;;16.39;56.71;100484.88;10176711;29;20044;-72
2022/04/17 05:59:46;;;;;;;10.00;5.05;;;;;;;16.54;56.08;100487.38;10157318;29;20044;-74
2022/04/17 06:04:50;;;;;;;6.78;4.05;;;;;;;16.80;55.33;100467.81;10175408;29;20063;-72
2022/04/17 06:09:50;;;;;;;8.88;4.25;;;;;;;17.53;54.73;100569.84;10174511;29;20052;-74
2022/04/17 06:14:51;;;;;;;7.97;4.00;;;;;;;17.58;54.19;100558.44;10157015;29;20048;-79
2022/04/17 06:19:52;;;;;;;6.07;4.03;;;;;;;16.05;53.41;100273.28;10157051;29;20048;-74
2022/04/17 06:24:53;;;;;;;10.07;5.43;;;;;;;17.95;53.62;100566.91;10171387;29;20045;-72
2022/04/17 06:29:54;;;;;;;7.35;4.00;;;;;;;18.12;53.34;100576.13;10135430;29;20115;-75
2022/04/17 06:34:56;;;;;;;6.93;3.70;;;;;;;18.16;52.57;100515.53;10135472;29;20045;-75
2022/04/17 06:39:59;;;;;;;6.30;3.60;;;;;;;18.05;50.87;100497.38;10135661;29;20107;-73
2022/04/17 06:45:00;;;;;;;7.40;4.05;;;;;;;18.67;49.44;100565.75;10132792;29;20518;-72
2022/04/17 06:50:01;;;;;;;10.60;5.78;;;;;;;17.98;50.24;100424.03;10116777;29;20151;-73
2022/04/17 06:55:03;;;;;;;9.02;3.65;;;;;;;18.66;48.46;100530.97;10117498;29;20079;-74
2022/04/17 07:00:09;;;;;;;13.95;3.58;;;;;;;17.74;48.64;100378.00;10134563;29;20401;-72
2022/04/17 07:05:12;;;;;;;11.50;3.22;;;;;;;19.13;48.91;100548.50;10134411;29;20048;-73
2022/04/17 07:10:13;;;;;;;13.10;3.55;;;;;;;19.06;48.83;100471.53;10133926;29;20079;-73
2022/04/17 07:15:15;;;;;;;11.65;3.88;;;;;;;18.82;47.94;100414.78;10133718;29;20083;-73
2022/04/17 07:20:16;;;;;;;11.02;3.70;;;;;;;19.29;47.72;100477.09;10134645;29;20044;-74
2022/04/17 07:25:17;;;;;;;8.98;3.97;;;;;;;19.88;48.30;100550.31;10134755;29;20040;-73
2022/04/17 07:30:21;;;;;;;7.53;3.90;;;;;;;19.59;46.36;100511.41;10116577;29;20500;-76
2022/04/17 07:35:23;;;;;;;7.03;3.75;;;;;;;18.58;47.13;100341.06;10134236;29;20096;-74
2022/04/17 07:40:26;;;;;;;7.75;3.38;;;;;;;19.22;45.89;100378.56;10154450;29;20500;-74
2022/04/17 07:45:29;;;;;;;7.45;3.67;;;;;;;19.29;45.27;100342.41;10154793;29;20100;-73
2022/04/17 07:50:31;;;;;;;7.32;2.90;;;;;;;20.38;44.09;100473.78;10173586;29;20067;-72
2022/04/17 07:55:32;;;;;;;4.88;2.80;;;;;;;19.67;44.08;100362.09;10172213;29;20078;-73
2022/04/17 08:00:48;;;;;;;6.10;2.85;;;;;;;20.77;43.21;100515.56;10172030;29;20165;-74
2022/04/17 08:05:50;;;;;;;4.72;2.70;;;;;;;20.20;42.02;100385.63;10154520;29;20040;-73
2022/04/17 08:10:50;;;;;;;6.85;3.10;;;;;;;20.15;41.79;100390.88;10155400;29;20099;-72
2022/04/17 08:15:51;;;;;;;4.75;2.53;;;;;;;19.74;41.96;100296.28;10155293;29;20048;-72
2022/04/17 08:20:52;;;;;;;3.63;2.70;;;;;;;20.67;42.01;100415.41;10173744;29;20040;-72
2022/04/17 08:25:53;;;;;;;9.00;2.40;;;;;;;20.63;40.86;100371.88;10178778;29;20500;-75
2022/04/17 08:30:55;;;;;;;7.15;2.17;;;;;;;21.04;40.31;100428.72;10161720;29;20044;-73
2022/04/17 08:35:59;;;;;;;5.28;2.30;;;;;;;21.37;39.47;100488.41;10162316;29;20412;-73
2022/04/17 08:41:05;;;;;;;3.97;2.30;;;;;;;20.71;40.17;100349.13;10178259;29;20119;-73
2022/04/17 08:46:05;;;;;;;7.53;1.95;;;;;;;21.07;39.32;100361.56;10178329;29;20044;-72
2022/04/17 08:51:07;;;;;;;4.07;2.03;;;;;;;20.82;39.31;100304.28;10178076;29;20470;-72
2022/04/17 08:56:08;;;;;;;5.25;1.88;;;;;;;20.42;38.91;100181.66;10178070;29;20052;-74
2022/04/17 09:01:13;;;;;;;4.97;1.70;;;;;;;20.97;37.52;100286.53;10178700;29;20055;-74
2022/04/17 09:06:21;;;;;;;5.93;1.95;;;;;;;21.95;37.79;100410.94;10163028;29;20040;-76
2022/04/17 09:11:25;;;;;;;5.68;1.70;;;;;;;22.09;37.56;100422.28;10145213;29;20079;-76
2022/04/17 09:16:28;;;;;;;4.60;1.80;;;;;;;21.62;37.54;100352.16;10174141;29;20051;-76
2022/04/17 09:21:34;;;;;;;5.07;2.00;;;;;;;21.35;37.25;100285.13;10178099;29;20056;-73
2022/04/17 09:26:34;;;;;;;7.60;1.92;;;;;;;22.45;38.05;100396.72;10175729;29;20143;-73
2022/04/17 09:31:35;;;;;;;4.07;2.00;;;;;;;22.60;37.58;100415.09;10158685;29;20040;-73
2022/04/17 09:36:37;;;;;;;5.90;2.42;;;;;;;22.77;36.81;100388.84;10176420;29;20044;-73
2022/04/17 09:41:55;;;;;;;11.77;2.20;;;;;;;22.56;37.54;100330.03;10159889;29;20555;-74
2022/04/17 09:46:56;;;;;;;3.85;1.80;;;;;;;22.73;36.27;100392.28;10175848;29;20062;-73
2022/04/17 09:52:07;;;;;;;5.95;1.90;;;;;;;22.44;37.02;100373.44;10185046;29;20044;-73
2022/04/17 09:57:09;;;;;;;7.07;1.60;;;;;;;21.97;36.75;100276.28;10176001;29;20052;-75
2022/04/17 10:02:14;;;;;;;5.13;2.03;;;;;;;22.42;35.30;100321.41;10184331;29;20086;-73
2022/04/17 10:07:18;;;;;;;7.40;2.20;;;;;;;22.66;35.16;100378.09;10175425;29;20131;-75
2022/04/17 10:12:20;;;;;;;6.00;1.95;;;;;;;22.44;36.27;100380.72;10174745;29;20058;-72
2022/04/17 10:17:23;;;;;;;8.18;2.35;;;;;;;22.62;36.94;100375.06;10174647;29;20412;-73
2022/04/17 10:22:29;;;;;;;8.00;1.70;;;;;;;22.22;35.86;100316.47;10174569;29;20535;-76
2022/04/17 10:27:43;;;;;;;6.85;1.73;;;;;;;22.88;36.02;100329.38;10175421;29;20078;-77
2022/04/17 10:33:16;;;;;;;7.07;1.60;;;;;;;22.47;35.23;100253.84;10175076;29;20048;-73
2022/04/17 10:38:22;;;;;;;5.43;1.53;;;;;;;22.53;35.33;100303.47;10174389;29;20043;-73
2022/04/17 10:43:23;;;;;;;2.10;1.17;;;;;;;22.64;35.43;100313.34;10155543;29;20052;-73
2022/04/17 10:48:27;;;;;;;8.35;1.80;;;;;;;22.84;34.42;100291.16;10150241;29;20060;-74
2022/04/17 10:53:31;;;;;;;7.07;1.60;;;;;;;22.68;34.79;100202.69;10169321;29;20059;-74
2022/04/17 10:58:53;;;;;;;7.82;1.45;;;;;;;23.01;34.89;100275.72;10172934;29;20112;-72
2022/04/17 11:03:54;;;;;;;4.80;1.30;;;;;;;23.12;34.32;100287.47;10172066;29;20044;-75
2022/04/17 11:09:02;;;;;;;4.63;1.48;;;;;;;22.53;34.82;100197.88;10156081;29;20048;-73
2022/04/17 11:14:13;;;;;;;4.75;1.33;;;;;;;23.14;34.67;100269.09;10172772;29;20420;-73
2022/04/17 11:19:20;;;;;;;4.13;1.27;;;;;;;22.76;34.44;100181.41;10172391;29;20072;-74
2022/04/17 11:24:22;;;;;;;3.38;1.23;;;;;;;23.24;34.30;100280.06;10155493;29;20085;-74
2022/04/17 11:29:39;;;;;;;4.57;1.40;;;;;;;23.04;33.53;100244.59;10171367;29;20040;-75
2022/04/17 11:34:53;;;;;;;8.70;1.50;;;;;;;22.67;34.02;100211.84;10172225;29;20051;-73
2022/04/17 11:39:55;;;;;;;4.88;1.25;;;;;;;21.94;32.32;100128.03;10155925;29;20036;-72
2022/04/17 11:45:01;;;;;;;6.40;1.40;;;;;;;22.39;33.45;100161.41;10154649;29;20050;-72
2022/04/17 11:50:05;;;;;;;4.78;1.27;;;;;;;23.35;32.93;100261.19;10172762;29;20060;-72
2022/04/17 11:55:07;;;;;;;8.48;1.50;;;;;;;21.77;32.66;100000.97;10172611;29;20050;-73
2022/04/17 12:00:09;;;;;;;11.75;1.73;;;;;;;22.12;32.51;100048.47;10180234;29;20103;-74
2022/04/17 12:05:12;;;;;;;5.05;1.58;;;;;;;22.75;31.50;100143.72;10179290;29;20048;-73
2022/04/17 12:10:14;;;;;;;5.47;1.30;;;;;;;23.01;32.33;100199.84;10179781;29;20468;-74
2022/04/17 12:15:15;;;;;;;7.40;1.50;;;;;;;22.77;32.85;100161.34;10179647;29;20091;-75
2022/04/17 12:20:16;;;;;;;2.85;1.20;;;;;;;23.03;31.91;100215.84;10176546;29;20051;-77
2022/04/17 12:25:20;;;;;;;8.25;1.63;;;;;;;21.54;32.52;100034.44;10162332;29;20051;-75
2022/04/17 12:30:24;;;;;;;7.32;1.52;;;;;;;21.53;33.36;100051.72;10178944;29;20040;-76
2022/04/17 12:35:32;;;;;;;7.85;1.80;;;;;;;21.32;32.64;100012.72;10161647;29;20178;-75
2022/04/17 12:40:44;;;;;;;5.13;1.58;;;;;;;21.97;32.77;100086.97;10178098;29;20537;-74
2022/04/17 12:46:21;;;;;;;4.80;1.30;;;;;;;22.73;31.65;100217.06;10177792;29;20472;-75
2022/04/17 12:51:25;;;;;;;5.25;1.33;;;;;;;22.14;32.88;100178.06;10178921;29;20130;-74
2022/04/17 12:56:27;;;;;;;15.73;1.95;;;;;;;21.56;33.28;100104.47;10177726;29;20055;-73
2022/04/17 13:01:37;;;;;;;11.57;1.85;;;;;;;22.23;33.45;100225.34;10178029;29;20075;-75
2022/04/17 13:06:39;;;;;;;37.00;4.13;;;;;;;22.21;34.03;100233.69;10175545;29;20055;-75
2022/04/17 13:11:51;;;;;;;27.92;2.38;;;;;;;21.78;34.46;100196.47;10171392;29;20605;-71
2022/04/17 13:17:01;;;;;;;15.02;1.83;;;;;;;21.73;35.88;100199.91;10174635;29;20060;-73
2022/04/17 13:22:02;;;;;;;10.10;1.60;;;;;;;21.73;36.50;100194.50;10159982;29;20471;-73
2022/04/17 13:27:03;;;;;;;11.38;1.52;;;;;;;21.01;36.67;100103.25;10177141;29;20130;-73
2022/04/17 13:32:06;;;;;;;9.00;1.73;;;;;;;21.58;37.32;100232.91;10177431;29;20588;-73
2022/04/17 13:42:26;;;;;;;17.27;2.00;;;;;;;21.09;38.58;100185.75;10176001;29;20067;-72
2022/04/17 13:47:26;;;;;;;8.60;1.70;;;;;;;21.00;39.11;100184.47;10176382;29;20138;-72
2022/04/17 13:52:28;;;;;;;5.82;1.65;;;;;;;20.96;38.55;100200.34;10175032;29;20483;-74
2022/04/17 13:57:29;;;;;;;9.02;1.63;;;;;;;20.68;38.99;100185.75;10175414;29;20048;-75
2022/04/17 14:02:30;;;;;;;3.55;1.48;;;;;;;20.66;39.33;100204.06;10175721;29;20399;-73
2022/04/17 14:07:31;;;;;;;7.55;1.70;;;;;;;20.14;39.64;100151.94;10175300;29;20123;-73
2022/04/17 14:12:32;;;;;;;11.70;2.00;;;;;;;19.46;39.74;100069.72;10175526;29;20043;-74
2022/04/17 14:17:33;;;;;;;18.73;3.00;;;;;;;19.69;40.29;100120.16;10174434;29;20044;-73
2022/04/17 14:22:34;;;;;;;8.18;1.65;;;;;;;20.09;40.33;100195.75;10174647;29;20700;-74
2022/04/17 14:27:35;;;;;;;7.57;1.45;;;;;;;19.42;40.76;100093.63;10174289;29;20530;-75
2022/04/17 14:32:36;;;;;;;10.43;1.70;;;;;;;19.67;40.73;100165.38;10174812;29;20084;-73
2022/04/17 14:37:37;;;;;;;4.43;1.95;;;;;;;19.90;41.21;100232.78;10175114;29;20039;-73
2022/04/17 14:42:38;;;;;;;8.35;1.95;;;;;;;19.79;41.54;100234.41;10174694;29;20389;-73
2022/04/17 14:47:39;;;;;;;7.32;2.40;;;;;;;19.14;41.97;100145.41;10173632;29;20452;-73
2022/04/17 14:52:40;;;;;;;8.57;2.40;;;;;;;19.30;42.72;100205.91;10173718;29;20058;-73
2022/04/17 14:57:41;;;;;;;8.27;1.85;;;;;;;19.29;42.90;100226.59;10173847;29;20044;-73
2022/04/17 15:02:42;;;;;;;4.80;1.75;;;;;;;18.97;43.32;100220.63;10173543;29;20043;-73
2022/04/17 15:07:43;;;;;;;4.93;1.60;;;;;;;19.01;43.32;100248.72;10173386;29;20139;-73
2022/04/17 15:12:44;;;;;;;9.82;1.80;;;;;;;19.02;43.55;100263.00;10173715;29;20082;-75
2022/04/17 15:17:44;;;;;;;6.75;1.60;;;;;;;18.82;43.94;100250.59;10171260;29;20043;-75
2022/04/17 15:22:45;;;;;;;8.48;1.98;;;;;;;17.74;44.60;100119.28;10172416;29;20055;-72
2022/04/17 15:27:47;;;;;;;13.93;2.75;;;;;;;17.57;44.69;100108.25;10173315;29;20044;-75
2022/04/17 15:32:48;;;;;;;18.90;2.20;;;;;;;18.22;45.15;100253.06;10168905;29;20503;-74
2022/04/17 15:37:51;;;;;;;10.38;2.03;;;;;;;17.46;45.22;100168.03;10147581;29;20052;-75
2022/04/17 15:42:52;;;;;;;13.03;2.00;;;;;;;17.62;45.21;100229.28;10171932;29;20044;-75
2022/04/17 15:48:26;;;;;;;7.82;2.15;;;;;;;17.92;45.84;100298.53;10149926;29;20496;-76
2022/04/17 15:53:20;;;;;;;7.30;1.63;;;;;;;16.29;46.23;100068.13;10162890;29;20063;-75
2022/04/17 15:58:21;;;;;;;5.47;1.90;;;;;;;16.97;46.21;100210.63;10140830;29;20055;-76
2022/04/17 16:03:22;;;;;;;8.05;1.88;;;;;;;16.38;46.95;100128.50;10148040;29;20091;-76
2022/04/17 16:08:23;;;;;;;7.18;1.63;;;;;;;16.48;47.27;100162.91;10179955;29;20040;-75
2022/04/17 16:13:24;;;;;;;9.75;1.58;;;;;;;16.28;47.25;100136.19;10172012;29;20480;-76
2022/04/17 16:18:25;;;;;;;5.13;1.75;;;;;;;16.81;47.78;100241.47;10172290;29;20048;-76
2022/04/17 16:23:26;;;;;;;8.02;2.40;;;;;;;15.80;47.99;100112.34;10171788;29;20048;-75
2022/04/17 16:28:27;;;;;;;9.38;1.95;;;;;;;15.18;48.24;100042.94;10154364;29;20048;-75
2022/04/17 16:33:28;;;;;;;8.93;2.00;;;;;;;14.93;48.65;100007.13;10154809;29;20051;-76
2022/04/17 16:38:29;;;;;;;14.10;2.15;;;;;;;16.19;49.19;100240.91;10170741;29;20048;-78
2022/04/17 16:43:29;;;;;;;5.40;1.48;;;;;;;16.42;49.50;100331.66;10158416;29;20040;-75
2022/04/17 16:48:30;;;;;;;6.28;1.50;;;;;;;16.36;49.70;100336.97;10137635;29;20056;-74
2022/04/17 16:53:31;;;;;;;7.82;1.90;;;;;;;14.91;49.66;100119.66;10138651;29;20044;-75
2022/04/17 17:03:53;;;;;;;9.55;2.05;;;;;;;14.19;50.01;100066.72;10191836;29;20139;-76
2022/04/17 17:08:54;;;;;;;11.65;1.90;;;;;;;14.38;50.56;100114.06;10188929;29;20048;-76
2022/04/17 17:13:54;;;;;;;5.75;1.90;;;;;;;14.80;51.34;100198.59;10174551;29;20048;-77
2022/04/17 17:18:55;;;;;;;7.68;2.03;;;;;;;15.18;51.71;100273.06;10177423;29;20040;-75
2022/04/17 17:23:56;;;;;;;8.23;2.00;;;;;;;14.71;52.51;100223.84;10176505;29;20102;-75
2022/04/17 17:28:57;;;;;;;10.20;2.00;;;;;;;15.01;52.65;100317.22;10176429;29;20044;-74
2022/04/17 17:33:58;;;;;;;10.02;2.05;;;;;;;14.88;52.60;100317.97;10178834;29;20051;-75
2022/04/17 17:38:58;;;;;;;6.40;2.28;;;;;;;14.09;53.41;100222.84;10192532;29;20051;-77
2022/04/17 17:43:59;;;;;;;9.98;2.40;;;;;;;14.50;54.52;100294.22;10171451;29;20407;-77
2022/04/17 17:49:00;;;;;;;16.30;3.15;;;;;;;13.97;55.74;100207.50;10188807;29;21606;-76
2022/04/17 17:54:01;;;;;;;16.23;4.25;;;;;;;14.38;57.41;100269.88;10186998;29;20147;-77
2022/04/17 17:59:02;;;;;;;16.35;3.90;;;;;;;14.22;58.87;100254.16;10191655;29;20040;-76
2022/04/17 18:04:03;;;;;;;11.18;4.20;;;;;;;14.07;59.83;100243.56;10189663;29;20059;-76
2022/04/17 18:14:30;;;;;;;13.20;4.35;;;;;;;13.24;61.01;100160.44;10184239;29;20103;-75
2022/04/17 18:19:31;;;;;;;8.55;4.07;;;;;;;13.80;61.87;100263.06;10157929;29;20091;-77
2022/04/17 18:24:32;;;;;;;9.77;3.97;;;;;;;13.76;62.65;100269.75;10174575;29;20178;-75
2022/04/17 18:29:33;;;;;;;11.20;3.67;;;;;;;13.48;64.22;100262.50;10174965;29;20173;-74
2022/04/17 18:34:34;;;;;;;8.68;3.40;;;;;;;13.33;64.05;100256.41;10175166;29;20156;-75
2022/04/17 18:39:35;;;;;;;9.55;3.83;;;;;;;13.11;64.45;100248.31;10157119;29;20079;-74
2022/04/17 18:44:36;;;;;;;10.73;3.92;;;;;;;13.16;65.27;100275.25;10172169;29;20048;-76
2022/04/17 18:49:37;;;;;;;12.80;3.92;;;;;;;12.60;65.91;100200.31;10174491;29;20522;-76
2022/04/17 18:54:38;;;;;;;14.00;4.05;;;;;;;11.01;66.07;99975.19;10173515;29;20040;-75
2022/04/17 18:59:39;;;;;;;13.07;3.50;;;;;;;11.50;66.84;100072.31;10171388;29;20052;-75
2022/04/17 19:04:42;;;;;;;11.00;3.63;;;;;;;11.82;67.50;100146.50;10173879;29;20055;-73
2022/04/17 19:09:43;;;;;;;10.88;3.10;;;;;;;12.49;67.81;100262.03;10156228;29;20051;-74
2022/04/17 19:14:43;;;;;;;13.32;3.38;;;;;;;12.51;67.95;100287.50;10155302;29;20135;-74
2022/04/17 19:19:44;;;;;;;10.35;3.70;;;;;;;11.36;68.45;100096.00;10172061;29;20047;-74
2022/04/17 19:24:46;;;;;;;6.90;3.28;;;;;;;11.77;69.50;100177.31;10155128;29;20099;-74
2022/04/17 19:29:47;;;;;;;14.02;3.55;;;;;;;12.16;69.15;100264.19;10173449;29;20055;-74
2022/04/17 19:40:08;;;;;;;10.15;3.40;;;;;;;11.62;70.77;100195.91;10173067;29;20135;-75
2022/04/17 19:45:14;;;;;;;5.78;3.30;;;;;;;11.48;71.16;100188.69;10172599;29;20436;-73
2022/04/17 19:50:16;;;;;;;8.32;3.35;;;;;;;10.94;71.52;100097.31;10172948;29;20048;-75
2022/04/17 19:55:17;;;;;;;11.00;3.40;;;;;;;10.92;72.23;100103.84;10170300;29;20515;-74
2022/04/17 20:00:19;;;;;;;10.52;3.78;;;;;;;11.36;72.65;100186.44;10172314;29;20079;-78
2022/04/17 20:05:20;;;;;;;10.48;3.58;;;;;;;10.64;72.74;100084.88;10173019;29;20083;-75
2022/04/17 20:10:20;;;;;;;6.40;2.90;;;;;;;11.09;72.92;100158.53;10172160;29;20040;-74
2022/04/17 20:15:21;;;;;;;7.60;3.45;;;;;;;11.42;73.16;100201.69;10171993;29;20044;-75
2022/04/17 20:20:22;;;;;;;7.57;3.60;;;;;;;11.03;73.53;100135.31;10179255;29;20103;-74
2022/04/17 20:25:23;;;;;;;6.40;3.40;;;;;;;11.08;73.69;100161.38;10178476;29;20076;-75
2022/04/17 20:30:25;;;;;;;9.13;3.53;;;;;;;11.07;73.97;100154.38;10179875;29;20126;-75
2022/04/17 20:35:27;;;;;;;6.90;3.58;;;;;;;10.64;74.20;100093.69;10171992;29;20048;-76
2022/04/17 20:40:27;;;;;;;6.78;3.45;;;;;;;10.69;74.62;100109.94;10139712;29;20043;-76
2022/04/17 20:50:48;;;;;;;8.05;3.67;;;;;;;10.00;75.72;100008.84;10139779;29;20064;-75
2022/04/17 20:55:49;;;;;;;10.48;3.95;;;;;;;10.59;76.44;100100.50;10139164;29;20208;-77
2022/04/17 21:00:49;;;;;;;8.77;4.15;;;;;;;9.93;76.61;99984.00;10138576;29;20048;-76
2022/04/17 21:05:52;;;;;;;8.18;3.78;;;;;;;11.06;77.31;100155.41;10138748;29;20048;-79
2022/04/17 21:10:53;;;;;;;7.38;4.22;;;;;;;10.39;77.46;100031.09;10138745;29;20092;-76
2022/04/17 21:15:54;;;;;;;6.88;3.90;;;;;;;10.49;77.32;100053.75;10138699;29;20048;-76
2022/04/17 21:20:55;;;;;;;5.35;3.35;;;;;;;10.30;76.51;99993.13;10138821;29;20048;-76
2022/04/17 21:25:55;;;;;;;8.25;4.18;;;;;;;10.80;75.70;100058.25;10137387;29;20055;-76
2022/04/17 21:30:56;;;;;;;7.30;3.80;;;;;;;9.74;75.69;99894.22;10136493;29;20041;-75
2022/04/17 21:35:57;;;;;;;13.55;4.03;;;;;;;10.37;76.03;100023.28;10120993;29;20044;-76
2022/04/17 21:40:58;;;;;;;9.23;3.90;;;;;;;10.62;76.03;100053.19;10137140;29;20559;-75
2022/04/17 21:45:59;;;;;;;6.57;4.32;;;;;;;10.30;76.33;100029.47;10137724;29;20492;-75
2022/04/17 21:51:00;;;;;;;9.23;5.32;;;;;;;9.21;76.38;99846.22;10126456;29;20491;-76
2022/04/17 21:56:00;;;;;;;9.38;4.72;;;;;;;9.34;76.63;99862.41;10158696;29;20044;-76
2022/04/17 22:06:21;;;;;;;8.27;3.70;;;;;;;10.53;75.11;100009.09;10175987;29;20051;-75
2022/04/17 22:11:22;;;;;;;5.30;3.60;;;;;;;10.68;74.39;100009.19;10175973;29;20138;-76
2022/04/17 22:16:23;;;;;;;6.22;3.63;;;;;;;10.84;74.53;100030.31;10174692;29;20142;-75
2022/04/17 22:21:24;;;;;;;6.10;3.78;;;;;;;9.64;74.71;99836.09;10174600;29;20043;-75
2022/04/17 22:26:24;;;;;;;5.90;3.70;;;;;;;9.68;75.71;99877.16;10175267;29;20107;-76
2022/04/17 22:31:25;;;;;;;7.00;4.72;;;;;;;9.85;77.03;99906.28;10174538;29;20070;-75
2022/04/17 22:36:26;;;;;;;6.82;4.10;;;;;;;8.45;76.62;99715.19;10174597;29;20044;-75
2022/04/17 22:41:27;;;;;;;16.15;5.78;;;;;;;10.52;78.32;100026.84;10156800;29;20048;-75
2022/04/17 22:46:28;;;;;;;9.75;4.47;;;;;;;10.06;78.09;99947.09;10173835;29;20044;-76
2022/04/17 22:51:28;;;;;;;12.02;4.65;;;;;;;9.05;78.25;99780.84;10174693;29;20056;-75
2022/04/17 22:56:32;;;;;;;9.23;4.70;;;;;;;10.03;78.48;99949.28;10156697;29;20172;-75
2022/04/17 23:01:33;;;;;;;7.13;4.57;;;;;;;10.08;78.22;99941.66;10156729;29;20044;-75
2022/04/17 23:06:34;;;;;;;11.60;4.78;;;;;;;10.20;78.34;99973.91;10156538;29;20103;-76
2022/04/17 23:11:35;;;;;;;8.15;4.35;;;;;;;8.86;79.24;99781.28;10147384;29;20040;-76
2022/04/17 23:16:36;;;;;;;10.05;5.22;;;;;;;9.20;80.77;99851.69;10156721;29;20104;-75
2022/04/17 23:21:36;;;;;;;9.82;5.18;;;;;;;10.04;81.35;99980.13;10156199;29;20040;-75
2022/04/17 23:26:37;;;;;;;7.47;5.13;;;;;;;9.95;82.75;99973.22;10155222;29;20047;-75
2022/04/17 23:31:38;;;;;;;7.90;5.43;;;;;;;8.18;85.10;99713.72;10173242;29;20036;-76
2022/04/17 23:36:39;;;;;;;8.05;5.50;;;;;;;9.60;84.67;99933.75;10172413;29;20052;-75
2022/04/17 23:41:40;;;;;;;9.30;5.32;;;;;;;9.89;84.69;99968.59;10155289;29;20040;-76
2022/04/17 23:46:41;;;;;;;10.68;6.18;;;;;;;8.79;84.05;99775.81;10171592;29;20055;-76
2022/04/17 23:51:43;;;;;;;13.05;4.95;;;;;;;9.61;83.63;99918.66;10157032;29;20147;-76
2022/04/17 23:56:44;;;;;;;11.00;5.70;;;;;;;8.00;84.21;99668.94;10162972;29;20174;-76
